createdAt,value
2022-12-16T00:02:24.594Z,99244.59
2022-12-16T00:04:51.270Z,99235.63
2022-12-16T00:07:17.711Z,99234.94
2022-12-16T00:09:44.149Z,99227.81
2022-12-16T00:12:10.664Z,99239.34
2022-12-16T00:14:37.044Z,99232.56
2022-12-16T00:17:04.189Z,99229.13
2022-12-16T00:19:31.915Z,99230.44
2022-12-16T00:21:59.102Z,99232.41
2022-12-16T00:24:26.043Z,99237.25
2022-12-16T00:26:52.673Z,99230.53
2022-12-16T00:29:20.722Z,99231.38
2022-12-16T00:31:48.177Z,99223.09
2022-12-16T00:34:16.261Z,99224.59
2022-12-16T00:36:44.224Z,99223.25
2022-12-16T00:39:11.568Z,99230.97
2022-12-16T00:41:38.218Z,99228.06
2022-12-16T00:44:05.891Z,99228.06
2022-12-16T00:46:32.523Z,99230.88
2022-12-16T00:48:59.168Z,99231.78
2022-12-16T00:51:25.907Z,99231.53
2022-12-16T00:53:52.480Z,99237.50
2022-12-16T00:56:19.420Z,99241.66
2022-12-16T00:58:48.194Z,99239.78
2022-12-16T01:01:15.032Z,99235.09
2022-12-16T01:03:43.576Z,99229.84
2022-12-16T01:06:16.155Z,99224.97
2022-12-16T01:08:49.273Z,99226.97
2022-12-16T01:11:17.854Z,99229.69
2022-12-16T01:13:45.088Z,99231.75
2022-12-16T01:16:11.660Z,99245.81
2022-12-16T01:18:38.273Z,99240.19
2022-12-16T01:21:06.680Z,99243.59
2022-12-16T01:23:34.221Z,99249.19
2022-12-16T01:26:01.626Z,99245.81
2022-12-16T01:28:29.182Z,99236.31
2022-12-16T01:31:01.908Z,99236.31
2022-12-16T01:33:32.952Z,99230.97
2022-12-16T01:36:01.778Z,99237.25
2022-12-16T01:38:28.572Z,99234.00
2022-12-16T01:40:55.292Z,99232.31
2022-12-16T01:43:26.766Z,99229.75
2022-12-16T01:45:56.201Z,99221.72
2022-12-16T01:48:32.393Z,99223.50
2022-12-16T01:51:03.499Z,99218.31
2022-12-16T01:53:30.592Z,99214.75
2022-12-16T01:55:58.113Z,99210.34
2022-12-16T01:58:28.136Z,99216.13
2022-12-16T02:00:54.747Z,99216.72
2022-12-16T02:03:22.455Z,99212.22
2022-12-16T02:05:49.264Z,99218.59
2022-12-16T02:08:17.773Z,99212.38
2022-12-16T02:10:44.729Z,99215.97
2022-12-16T02:13:32.652Z,99206.88
2022-12-16T02:16:07.527Z,99197.81
2022-12-16T02:18:56.776Z,99196.72
2022-12-16T02:21:27.877Z,99197.72
2022-12-16T02:24:14.383Z,99194.09
2022-12-16T02:27:05.465Z,99193.31
2022-12-16T02:30:05.169Z,99193.91
2022-12-16T02:33:03.935Z,99191.47
2022-12-16T02:35:46.816Z,99189.22
2022-12-16T02:38:25.011Z,99181.16
2022-12-16T02:41:03.568Z,99179.06
2022-12-16T02:44:06.506Z,99177.22
2022-12-16T02:46:34.191Z,99175.59
2022-12-16T02:49:30.471Z,99181.97
2022-12-16T02:51:59.190Z,99179.84
2022-12-16T02:54:25.986Z,99179.31
2022-12-16T02:57:12.189Z,99177.88
2022-12-16T02:59:38.678Z,99180.34
2022-12-16T03:02:22.823Z,99177.28
2022-12-16T03:04:54.762Z,99179.84
2022-12-16T03:07:22.706Z,99178.91
2022-12-16T03:09:50.160Z,99170.50
2022-12-16T03:12:18.167Z,99168.06
2022-12-16T03:14:46.990Z,99168.81
2022-12-16T03:17:15.661Z,99164.25
2022-12-16T03:19:46.176Z,99166.28
2022-12-16T03:22:15.991Z,99156.53
2022-12-16T03:24:43.082Z,99154.66
2022-12-16T03:27:24.563Z,99162.88
2022-12-16T03:29:59.143Z,99158.34
2022-12-16T03:32:45.828Z,99161.19
2022-12-16T03:35:23.573Z,99160.50
2022-12-16T03:37:53.609Z,99160.28
2022-12-16T03:40:21.549Z,99160.03
2022-12-16T03:42:48.661Z,99158.66
2022-12-16T03:45:25.674Z,99164.41
2022-12-16T03:47:52.683Z,99155.75
2022-12-16T03:50:25.306Z,99161.03
2022-12-16T03:52:51.767Z,99165.94
2022-12-16T03:55:18.231Z,99164.41
2022-12-16T03:57:44.702Z,99165.25
2022-12-16T04:00:12.032Z,99171.78
2022-12-16T04:02:38.754Z,99174.78
2022-12-16T04:05:05.774Z,99175.09
2022-12-16T04:07:32.262Z,99176.19
2022-12-16T04:09:59.730Z,99174.50
2022-12-16T04:12:44.672Z,99178.22
2022-12-16T04:15:20.323Z,99176.28
2022-12-16T04:18:05.487Z,99183.22
2022-12-16T04:20:52.422Z,99178.91
2022-12-16T04:23:41.893Z,99180.69
2022-12-16T04:26:08.391Z,99178.69
2022-12-16T04:28:34.803Z,99185.22
2022-12-16T04:31:01.508Z,99185.50
2022-12-16T04:33:46.977Z,99189.72
2022-12-16T04:36:32.028Z,99189.56
2022-12-16T04:39:16.961Z,99200.03
2022-12-16T04:42:02.370Z,99199.16
2022-12-16T04:44:47.852Z,99204.59
2022-12-16T04:47:33.149Z,99212.66
2022-12-16T04:50:18.332Z,99201.81
2022-12-16T04:53:03.409Z,99205.75
2022-12-16T04:55:48.614Z,99212.88
2022-12-16T04:58:33.715Z,99210.00
2022-12-16T05:01:19.114Z,99215.00
2022-12-16T05:04:04.148Z,99218.13
2022-12-16T05:06:49.407Z,99233.06
2022-12-16T05:09:34.583Z,99232.72
2022-12-16T05:12:19.843Z,99237.59
2022-12-16T05:15:05.190Z,99242.56
2022-12-16T05:17:50.392Z,99243.56
2022-12-16T05:20:35.781Z,99247.25
2022-12-16T05:23:20.743Z,99235.59
2022-12-16T05:26:06.189Z,99247.81
2022-12-16T05:28:51.452Z,99248.34
2022-12-16T05:31:36.943Z,99253.44
2022-12-16T05:34:22.228Z,99248.28
2022-12-16T05:37:07.034Z,99249.63
2022-12-16T05:39:52.273Z,99245.28
2022-12-16T05:42:37.514Z,99247.84
2022-12-16T05:45:23.361Z,99244.78
2022-12-16T05:48:08.383Z,99248.19
2022-12-16T05:51:00.956Z,99239.44
2022-12-16T05:53:46.148Z,99235.91
2022-12-16T05:56:31.245Z,99232.03
2022-12-16T05:59:16.476Z,99242.09
2022-12-16T06:02:01.680Z,99252.50
2022-12-16T06:04:46.701Z,99249.88
2022-12-16T06:07:31.873Z,99253.53
2022-12-16T06:10:16.731Z,99260.91
2022-12-16T06:13:05.495Z,99266.31
2022-12-16T06:15:50.854Z,99269.88
2022-12-16T06:18:36.084Z,99268.78
2022-12-16T06:21:20.883Z,99276.41
2022-12-16T06:24:05.879Z,99279.91
2022-12-16T06:26:51.104Z,99282.84
2022-12-16T06:29:36.375Z,99284.28
2022-12-16T06:32:21.283Z,99288.22
2022-12-16T06:35:06.737Z,99293.72
2022-12-16T06:37:52.217Z,99301.69
2022-12-16T06:40:37.061Z,99298.44
2022-12-16T06:43:22.256Z,99294.53
2022-12-16T06:46:07.281Z,99303.19
2022-12-16T06:48:52.528Z,99300.25
2022-12-16T06:51:37.587Z,99315.16
2022-12-16T06:54:22.793Z,99316.72
2022-12-16T06:57:08.053Z,99316.72
2022-12-16T06:59:52.959Z,99320.66
2022-12-16T07:02:38.196Z,99322.28
2022-12-16T07:05:23.464Z,99339.75
2022-12-16T07:08:09.909Z,99337.13
2022-12-16T07:10:58.713Z,99342.06
2022-12-16T07:13:48.729Z,99347.56
2022-12-16T07:16:33.676Z,99354.94
2022-12-16T07:19:18.614Z,99363.22
2022-12-16T07:22:03.360Z,99363.44
2022-12-16T07:24:48.604Z,99369.13
2022-12-16T07:27:33.723Z,99374.78
2022-12-16T07:30:18.852Z,99373.69
2022-12-16T07:33:03.982Z,99386.47
2022-12-16T07:35:49.022Z,99382.53
2022-12-16T07:38:34.564Z,99385.59
2022-12-16T07:41:19.736Z,99394.84
2022-12-16T07:44:04.748Z,99401.88
2022-12-16T07:46:49.995Z,99395.88
2022-12-16T07:49:36.068Z,99390.81
2022-12-16T07:52:21.060Z,99397.47
2022-12-16T07:55:06.061Z,99396.44
2022-12-16T07:57:51.028Z,99396.09
2022-12-16T08:00:36.334Z,99397.34
2022-12-16T08:03:21.720Z,99400.47
2022-12-16T08:06:07.993Z,99404.38
2022-12-16T08:08:53.170Z,99408.28
2022-12-16T08:11:38.258Z,99413.53
2022-12-16T08:14:23.351Z,99417.41
2022-12-16T08:17:08.762Z,99421.16
2022-12-16T08:19:53.971Z,99417.28
2022-12-16T08:22:39.513Z,99425.94
2022-12-16T08:25:24.987Z,99428.19
2022-12-16T08:28:14.776Z,99438.88
2022-12-16T08:30:59.992Z,99438.38
2022-12-16T08:33:45.302Z,99441.69
2022-12-16T08:36:30.462Z,99439.25
2022-12-16T08:39:15.816Z,99451.91
2022-12-16T08:42:00.679Z,99444.94
2022-12-16T08:44:45.731Z,99446.38
2022-12-16T08:47:30.840Z,99452.94
2022-12-16T08:50:15.916Z,99457.72
2022-12-16T08:53:00.942Z,99462.19
2022-12-16T08:55:46.249Z,99467.28
2022-12-16T08:58:31.274Z,99472.06
2022-12-16T09:01:16.211Z,99468.13
2022-12-16T09:04:01.519Z,99469.38
2022-12-16T09:06:46.627Z,99480.66
2022-12-16T09:09:31.794Z,99473.94
2022-12-16T09:12:17.170Z,99481.22
2022-12-16T09:15:02.021Z,99483.91
2022-12-16T09:17:47.480Z,99483.19
2022-12-16T09:20:32.332Z,99480.69
2022-12-16T09:23:21.206Z,99490.56
2022-12-16T09:26:06.565Z,99493.56
2022-12-16T09:28:51.474Z,99492.63
2022-12-16T09:31:36.513Z,99499.47
2022-12-16T09:34:21.765Z,99500.22
2022-12-16T09:37:07.048Z,99498.66
2022-12-16T09:39:51.944Z,99500.66
2022-12-16T09:42:59.614Z,99507.53
2022-12-16T09:45:58.332Z,99518.03
2022-12-16T09:49:02.512Z,99513.28
2022-12-16T09:51:47.933Z,99517.72
2022-12-16T09:54:35.425Z,99519.38
2022-12-16T09:57:23.706Z,99516.81
2022-12-16T10:00:14.275Z,99532.66
2022-12-16T10:03:05.058Z,99529.78
2022-12-16T10:06:05.663Z,99534.34
2022-12-16T10:09:00.900Z,99525.56
2022-12-16T10:12:15.426Z,99530.72
2022-12-16T10:15:10.166Z,99529.53
2022-12-16T10:17:58.024Z,99527.47
2022-12-16T10:20:58.787Z,99527.25
2022-12-16T10:24:23.046Z,99527.84
2022-12-16T10:27:12.643Z,99523.56
2022-12-16T10:30:00.322Z,99526.63
2022-12-16T10:33:08.215Z,99519.00
2022-12-16T10:36:12.377Z,99528.38
2022-12-16T10:39:00.586Z,99532.78
2022-12-16T10:41:51.806Z,99541.41
2022-12-16T10:44:42.597Z,99530.81
2022-12-16T10:47:29.251Z,99539.97
2022-12-16T10:50:14.969Z,99544.41
2022-12-16T10:53:08.855Z,99543.00
2022-12-16T10:56:33.256Z,99541.66
2022-12-16T10:59:22.284Z,99545.28
2022-12-16T11:02:34.495Z,99535.00
2022-12-16T11:05:19.902Z,99532.53
2022-12-16T11:08:05.039Z,99543.75
2022-12-16T11:10:59.524Z,99541.66
2022-12-16T11:13:51.870Z,99548.84
2022-12-16T11:16:41.101Z,99547.97
2022-12-16T11:19:55.784Z,99549.84
2022-12-16T11:22:42.624Z,99559.63
2022-12-16T11:25:30.887Z,99557.28
2022-12-16T11:28:31.718Z,99555.66
2022-12-16T11:31:31.436Z,99563.91
2022-12-16T11:34:17.264Z,99559.00
2022-12-16T11:37:03.441Z,99567.63
2022-12-16T11:39:53.088Z,99574.06
2022-12-16T11:42:40.736Z,99580.75
2022-12-16T11:45:31.993Z,99583.59
2022-12-16T11:48:21.846Z,99587.53
2022-12-16T11:51:13.684Z,99586.38
2022-12-16T11:54:10.003Z,99590.28
2022-12-16T11:56:58.117Z,99591.34
2022-12-16T11:59:55.153Z,99599.06
2022-12-16T12:03:02.935Z,99592.69
2022-12-16T12:06:01.505Z,99596.28
2022-12-16T12:09:07.139Z,99593.63
2022-12-16T12:11:55.600Z,99596.84
2022-12-16T12:14:59.270Z,99597.06
2022-12-16T12:18:02.135Z,99606.84
2022-12-16T12:20:56.440Z,99608.06
2022-12-16T12:23:54.692Z,99611.56
2022-12-16T12:26:49.800Z,99617.16
2022-12-16T12:30:10.410Z,99616.56
2022-12-16T12:33:15.827Z,99620.50
2022-12-16T12:36:26.923Z,99622.47
2022-12-16T12:39:35.798Z,99623.50
2022-12-16T12:42:34.066Z,99626.66
2022-12-16T12:45:41.671Z,99624.63
2022-12-16T12:48:57.462Z,99634.06
2022-12-16T12:52:08.472Z,99638.22
2022-12-16T12:55:13.256Z,99631.41
2022-12-16T12:58:00.249Z,99634.06
2022-12-16T13:00:48.091Z,99641.50
2022-12-16T13:03:46.643Z,99649.41
2022-12-16T13:06:33.354Z,99652.50
2022-12-16T13:09:18.491Z,99649.09
2022-12-16T13:12:25.635Z,99655.31
2022-12-16T13:15:21.360Z,99657.94
2022-12-16T13:18:22.034Z,99663.06
2022-12-16T13:21:15.620Z,99668.25
2022-12-16T13:24:02.383Z,99672.50
2022-12-16T13:26:50.248Z,99674.97
2022-12-16T13:29:44.044Z,99669.09
2022-12-16T13:32:36.470Z,99675.38
2022-12-16T13:35:29.359Z,99687.59
2022-12-16T13:38:22.720Z,99688.56
2022-12-16T13:41:12.935Z,99698.41
2022-12-16T13:44:15.576Z,99697.13
2022-12-16T13:47:08.876Z,99693.66
2022-12-16T13:50:07.771Z,99716.44
2022-12-16T13:52:58.992Z,99722.91
2022-12-16T13:55:53.107Z,99727.06
2022-12-16T13:58:45.498Z,99728.25
2022-12-16T14:01:31.761Z,99734.44
2022-12-16T14:04:18.212Z,99739.13
2022-12-16T14:07:03.994Z,99739.16
2022-12-16T14:09:55.527Z,99748.69
2022-12-16T14:13:07.260Z,99751.88
2022-12-16T14:16:04.932Z,99751.63
2022-12-16T14:19:06.004Z,99766.19
2022-12-16T14:21:57.761Z,99771.94
2022-12-16T14:24:45.084Z,99779.53
2022-12-16T14:27:40.931Z,99780.41
2022-12-16T14:30:38.537Z,99784.44
2022-12-16T14:33:44.390Z,99795.22
2022-12-16T14:36:39.437Z,99786.56
2022-12-16T14:39:30.157Z,99791.09
2022-12-16T14:42:29.405Z,99799.78
2022-12-16T14:45:19.396Z,99808.91
2022-12-16T14:48:04.738Z,99808.09
2022-12-16T14:50:50.108Z,99818.75
2022-12-16T14:53:38.500Z,99822.84
2022-12-16T14:56:41.029Z,99825.69
2022-12-16T14:59:38.227Z,99831.50
2022-12-16T15:02:47.054Z,99835.91
2022-12-16T15:05:51.838Z,99838.19
2022-12-16T15:08:39.858Z,99840.75
2022-12-16T15:11:27.092Z,99830.22
2022-12-16T15:14:24.684Z,99833.13
2022-12-16T15:17:10.358Z,99828.84
2022-12-16T15:20:03.872Z,99843.13
2022-12-16T15:22:49.202Z,99847.56
2022-12-16T15:25:44.117Z,99850.38
2022-12-16T15:28:45.093Z,99853.59
2022-12-16T15:31:41.534Z,99861.78
2022-12-16T15:34:39.173Z,99865.31
2022-12-16T15:37:44.279Z,99867.50
2022-12-16T15:40:40.210Z,99877.34
2022-12-16T15:43:25.609Z,99885.69
2022-12-16T15:46:10.810Z,99892.16
2022-12-16T15:48:56.610Z,99878.53
2022-12-16T15:51:49.477Z,99878.25
2022-12-16T15:54:40.557Z,99898.28
2022-12-16T15:57:47.469Z,99906.22
2022-12-16T16:00:47.462Z,99908.22
2022-12-16T16:03:46.949Z,99909.31
2022-12-16T16:09:46.518Z,99916.41
2022-12-16T16:12:35.656Z,99922.03
2022-12-16T16:15:21.767Z,99921.31
2022-12-16T16:18:14.533Z,99919.50
2022-12-16T16:21:03.263Z,99921.41
2022-12-16T16:23:51.663Z,99932.56
2022-12-16T16:26:39.201Z,99933.69
2022-12-16T16:29:25.432Z,99931.69
2022-12-16T16:32:13.746Z,99928.22
2022-12-16T16:35:01.174Z,99926.06
2022-12-16T16:37:46.453Z,99928.56
2022-12-16T16:41:02.416Z,99931.56
2022-12-16T16:43:48.103Z,99941.03
2022-12-16T16:46:56.497Z,99949.31
2022-12-16T16:49:44.558Z,99948.97
2022-12-16T16:52:31.363Z,99955.22
2022-12-16T16:55:16.658Z,99953.38
2022-12-16T16:58:02.037Z,99957.59
2022-12-16T17:00:47.321Z,99957.97
2022-12-16T17:03:33.282Z,99961.31
2022-12-16T17:06:47.231Z,99963.09
2022-12-16T17:09:34.982Z,99968.47
2022-12-16T17:12:21.283Z,99970.34
2022-12-16T17:15:06.732Z,99972.69
2022-12-16T17:17:51.896Z,99977.94
2022-12-16T17:20:37.068Z,99989.25
2022-12-16T17:23:23.299Z,99988.69
2022-12-16T17:26:15.958Z,99993.38
2022-12-16T17:29:01.128Z,100004.56
2022-12-16T17:31:46.273Z,100005.44
2022-12-16T17:34:45.243Z,99994.38
2022-12-16T17:37:30.561Z,100000.13
2022-12-16T17:40:18.828Z,100009.50
2022-12-16T17:43:03.879Z,100012.63
2022-12-16T17:45:49.215Z,100012.63
2022-12-16T17:48:35.072Z,100016.56
2022-12-16T17:51:22.035Z,100020.91
2022-12-16T17:54:15.949Z,100024.47
2022-12-16T17:57:04.917Z,100026.00
2022-12-16T17:59:56.444Z,100030.94
2022-12-16T18:08:43.195Z,100046.75
2022-12-16T18:11:28.590Z,100047.09
2022-12-16T18:14:13.871Z,100047.94
2022-12-16T18:16:59.330Z,100049.72
2022-12-16T18:19:50.922Z,100045.19
2022-12-16T18:22:40.174Z,100061.38
2022-12-16T18:25:29.503Z,100054.19
2022-12-16T18:28:14.892Z,100047.03
2022-12-16T18:31:00.429Z,100050.69
2022-12-16T18:33:45.670Z,100056.97
2022-12-16T18:36:30.949Z,100059.66
2022-12-16T18:39:16.336Z,100055.78
2022-12-16T18:42:03.209Z,100061.38
2022-12-16T18:44:48.557Z,100075.38
2022-12-16T18:47:34.178Z,100066.75
2022-12-16T18:50:23.787Z,100068.72
2022-12-16T18:53:12.994Z,100072.25
2022-12-16T18:55:58.227Z,100072.81
2022-12-16T18:58:52.013Z,100073.22
2022-12-16T19:01:37.691Z,100071.34
2022-12-16T19:04:23.058Z,100073.09
2022-12-16T19:07:08.340Z,100073.78
2022-12-16T19:09:58.308Z,100079.03
2022-12-16T19:12:44.414Z,100078.13
2022-12-16T19:15:29.769Z,100085.09
2022-12-16T19:18:15.206Z,100080.94
2022-12-16T19:21:01.486Z,100081.78
2022-12-16T19:23:46.857Z,100088.88
2022-12-16T19:26:32.130Z,100092.28
2022-12-16T19:29:17.314Z,100093.94
2022-12-16T19:32:02.774Z,100096.47
2022-12-16T19:34:49.050Z,100093.50
2022-12-16T19:37:34.520Z,100094.63
2022-12-16T19:40:20.932Z,100105.19
2022-12-16T19:43:06.301Z,100103.47
2022-12-16T19:45:51.789Z,100103.59
2022-12-16T19:48:37.072Z,100100.69
2022-12-16T19:51:22.441Z,100108.59
2022-12-16T19:54:22.976Z,100108.91
2022-12-16T19:57:09.364Z,100118.47
2022-12-16T20:03:52.281Z,100126.75
2022-12-16T20:09:44.020Z,100143.88
2022-12-16T20:12:29.112Z,100154.34
2022-12-16T20:15:16.001Z,100156.84
2022-12-16T20:18:01.401Z,100161.97
2022-12-16T20:20:46.807Z,100160.19
2022-12-16T20:23:32.321Z,100163.66
2022-12-16T20:26:36.137Z,100168.13
2022-12-16T20:29:21.324Z,100173.09
2022-12-16T20:32:06.604Z,100174.06
2022-12-16T20:34:51.891Z,100181.94
2022-12-16T20:37:37.048Z,100187.22
2022-12-16T20:40:22.716Z,100181.94
2022-12-16T20:43:07.975Z,100178.66
2022-12-16T20:45:54.869Z,100187.66
2022-12-16T20:48:41.882Z,100194.56
2022-12-16T20:51:27.929Z,100188.50
2022-12-16T20:54:13.246Z,100194.13
2022-12-16T20:56:58.425Z,100190.81
2022-12-16T20:59:43.669Z,100195.84
2022-12-16T21:02:33.545Z,100194.75
2022-12-16T21:05:19.793Z,100207.31
2022-12-16T21:08:08.205Z,100202.63
2022-12-16T21:10:57.508Z,100204.34
2022-12-16T21:13:43.664Z,100205.50
2022-12-16T21:16:29.330Z,100216.94
2022-12-16T21:19:15.276Z,100216.94
2022-12-16T21:22:00.675Z,100219.44
2022-12-16T21:24:47.569Z,100225.50
2022-12-16T21:27:32.929Z,100218.59
2022-12-16T21:30:18.158Z,100229.94
2022-12-16T21:33:04.639Z,100229.09
2022-12-16T21:35:49.896Z,100235.09
2022-12-16T21:38:35.192Z,100239.44
2022-12-16T21:41:21.484Z,100244.47
2022-12-16T21:44:09.657Z,100248.06
2022-12-16T21:46:55.299Z,100256.06
2022-12-16T21:49:41.684Z,100256.88
2022-12-16T21:52:27.110Z,100254.31
2022-12-16T21:55:12.144Z,100255.28
2022-12-16T21:57:57.431Z,100264.81
2022-12-16T22:00:42.810Z,100266.59
2022-12-16T22:03:28.229Z,100275.81
2022-12-16T22:06:16.964Z,100275.88
2022-12-16T22:09:02.083Z,100278.72
2022-12-16T22:11:47.216Z,100277.84
2022-12-16T22:14:32.684Z,100281.81
2022-12-16T22:17:18.105Z,100284.56
2022-12-16T22:20:03.385Z,100292.56
2022-12-16T22:22:51.540Z,100285.13
2022-12-16T22:25:36.873Z,100286.16
2022-12-16T22:28:22.042Z,100291.88
2022-12-16T22:31:16.069Z,100285.03
2022-12-16T22:34:01.998Z,100288.56
2022-12-16T22:36:47.255Z,100290.50
2022-12-16T22:39:32.564Z,100296.63
2022-12-16T22:42:17.763Z,100295.94
2022-12-16T22:45:03.109Z,100303.81
2022-12-16T22:47:49.691Z,100302.06
2022-12-16T22:50:35.164Z,100313.25
2022-12-16T22:53:20.242Z,100319.44
2022-12-16T22:56:09.749Z,100316.69
2022-12-16T22:58:54.910Z,100315.09
2022-12-16T23:01:42.259Z,100314.94
2022-12-16T23:04:27.475Z,100329.16
2022-12-16T23:07:12.932Z,100321.16
2022-12-16T23:09:58.163Z,100326.41
2022-12-16T23:12:43.377Z,100329.28
2022-12-16T23:15:31.970Z,100327.84
2022-12-16T23:18:17.572Z,100329.91
2022-12-16T23:21:09.780Z,100329.56
2022-12-16T23:23:55.160Z,100334.19
2022-12-16T23:26:42.299Z,100326.19
2022-12-16T23:29:27.537Z,100326.13
2022-12-16T23:32:28.305Z,100329.47
2022-12-16T23:35:13.481Z,100331.97
2022-12-16T23:37:58.797Z,100336.44
2022-12-16T23:40:44.098Z,100339.75
2022-12-16T23:43:29.383Z,100336.34
2022-12-16T23:46:14.475Z,100344.72
2022-12-16T23:48:59.347Z,100347.88
2022-12-16T23:51:48.714Z,100350.47
2022-12-16T23:54:33.906Z,100351.53
2022-12-16T23:57:19.289Z,100351.47
